createdAt,value
2023-04-25T00:03:34.228Z,10.40
2023-04-25T00:15:34.336Z,6.70
2023-04-25T00:27:34.722Z,6.80
2023-04-25T00:39:35.230Z,8.00
2023-04-25T00:51:35.618Z,8.10
2023-04-25T01:03:36.213Z,9.50
2023-04-25T01:15:36.600Z,9.90
2023-04-25T01:27:37.027Z,8.70
2023-04-25T01:39:37.444Z,8.40
2023-04-25T01:51:37.898Z,7.40
2023-04-25T02:15:38.903Z,8.00
2023-04-25T02:27:39.268Z,9.30
2023-04-25T02:39:39.687Z,8.60
2023-04-25T02:51:40.201Z,8.40
2023-04-25T03:03:40.695Z,9.80
2023-04-25T03:15:41.076Z,8.30
2023-04-25T03:27:41.534Z,8.20
2023-04-25T03:39:41.998Z,9.90
2023-04-25T03:51:42.464Z,8.30
2023-04-25T04:03:43.028Z,13.90
2023-04-25T04:15:43.356Z,18.20
2023-04-25T04:27:43.794Z,16.30
2023-04-25T04:39:44.281Z,14.80
2023-04-25T04:51:44.683Z,15.20
2023-04-25T05:03:45.288Z,10.50
2023-04-25T05:15:45.616Z,13.30
2023-04-25T05:27:46.098Z,22.20
2023-04-25T05:39:46.501Z,12.30
2023-04-25T05:51:46.941Z,11.40
2023-04-25T06:03:47.779Z,10.40
2023-04-25T06:15:47.916Z,9.60
2023-04-25T06:27:48.329Z,8.30
2023-04-25T06:39:48.779Z,5.40
2023-04-25T06:51:49.222Z,4.40
2023-04-25T07:03:49.868Z,3.60
2023-04-25T07:15:50.117Z,2.70
2023-04-25T07:27:50.587Z,4.20
2023-04-25T07:39:51.029Z,3.70
2023-04-25T07:51:51.489Z,2.50
2023-04-25T08:03:52.074Z,2.10
2023-04-25T08:15:52.885Z,2.80
2023-04-25T08:27:53.009Z,3.30
2023-04-25T08:39:53.407Z,2.70
2023-04-25T08:51:53.890Z,2.50
2023-04-25T09:03:54.280Z,2.10
2023-04-25T09:15:54.636Z,9.10
2023-04-25T09:27:55.145Z,3.00
2023-04-25T09:39:55.583Z,3.00
2023-04-25T09:51:56.072Z,4.20
2023-04-25T10:03:56.619Z,5.30
2023-04-25T10:15:56.960Z,2.70
2023-04-25T10:27:57.407Z,2.50
2023-04-25T10:39:57.830Z,2.20
2023-04-25T10:51:58.280Z,2.00
2023-04-25T11:03:58.893Z,2.20
2023-04-25T11:16:07.411Z,2.10
2023-04-25T11:27:59.684Z,2.80
2023-04-25T11:40:00.121Z,1.80
2023-04-25T11:52:00.581Z,1.70
2023-04-25T12:04:01.184Z,3.10
2023-04-25T12:16:01.545Z,1.60
2023-04-25T12:28:01.916Z,4.90
2023-04-25T12:40:02.406Z,1.90
2023-04-25T12:52:02.818Z,2.80
2023-04-25T13:04:03.546Z,5.10
2023-04-25T13:16:03.788Z,3.10
2023-04-25T13:28:04.201Z,2.90
2023-04-25T13:40:04.624Z,1.90
2023-04-25T13:52:05.095Z,1.30
2023-04-25T14:04:05.643Z,2.10
2023-04-25T14:16:06.054Z,1.50
2023-04-25T14:28:06.443Z,2.10
2023-04-25T14:40:06.909Z,1.40
2023-04-25T14:52:07.379Z,1.70
2023-04-25T15:04:08.076Z,2.70
2023-04-25T15:16:08.348Z,1.70
2023-04-25T15:28:08.735Z,2.10
2023-04-25T15:40:09.191Z,2.50
2023-04-25T15:52:09.673Z,1.30
2023-04-25T16:04:10.314Z,1.80
2023-04-25T16:16:10.602Z,2.30
2023-04-25T16:28:11.010Z,2.00
2023-04-25T16:40:11.523Z,1.80
2023-04-25T16:52:11.914Z,2.90
2023-04-25T17:04:12.416Z,3.40
2023-04-25T17:16:12.892Z,2.50
2023-04-25T17:28:13.293Z,5.00
2023-04-25T17:40:13.720Z,4.10
2023-04-25T17:52:14.202Z,3.30
2023-04-25T18:04:14.677Z,2.80
2023-04-25T18:16:15.134Z,2.00
2023-04-25T18:28:15.542Z,2.10
2023-04-25T18:40:16.039Z,1.90
2023-04-25T18:52:16.460Z,4.50
2023-04-25T19:04:16.972Z,2.20
2023-04-25T19:16:17.435Z,3.80
2023-04-25T19:28:17.853Z,4.40
2023-04-25T19:40:18.262Z,6.50
2023-04-25T19:52:18.745Z,3.60
2023-04-25T20:04:19.205Z,2.60
2023-04-25T20:16:19.865Z,3.30
2023-04-25T20:28:20.075Z,1.70
2023-04-25T20:40:20.530Z,2.40
2023-04-25T20:52:21.001Z,5.50
2023-04-25T21:04:21.524Z,2.80
2023-04-25T21:16:21.894Z,2.90
2023-04-25T21:28:22.362Z,4.50
2023-04-25T21:40:22.805Z,2.00
2023-04-25T21:52:23.256Z,2.70
2023-04-25T22:04:23.830Z,2.20
2023-04-25T22:16:24.221Z,3.40
2023-04-25T22:28:24.615Z,3.10
2023-04-25T22:40:25.076Z,3.90
2023-04-25T22:52:25.525Z,4.20
2023-04-25T23:04:26.135Z,6.30
2023-04-25T23:16:26.450Z,5.90
2023-04-25T23:28:26.860Z,3.80
2023-04-25T23:40:27.302Z,3.50
2023-04-25T23:52:27.778Z,7.60
